createdAt,value
2023-02-06T00:00:50.153Z,100.00
2023-02-06T00:03:17.067Z,100.00
2023-02-06T00:05:43.968Z,100.00
2023-02-06T00:08:10.784Z,100.00
2023-02-06T00:10:37.655Z,100.00
2023-02-06T00:13:04.472Z,100.00
2023-02-06T00:15:31.441Z,100.00
2023-02-06T00:17:58.279Z,100.00
2023-02-06T00:20:25.075Z,100.00
2023-02-06T00:22:51.868Z,100.00
2023-02-06T00:25:18.781Z,100.00
2023-02-06T00:27:45.643Z,100.00
2023-02-06T00:30:13.062Z,100.00
2023-02-06T00:32:39.969Z,100.00
2023-02-06T00:35:06.977Z,100.00
2023-02-06T00:37:33.773Z,100.00
2023-02-06T00:40:00.531Z,100.00
2023-02-06T00:42:27.439Z,100.00
2023-02-06T00:44:54.240Z,100.00
2023-02-06T00:47:21.050Z,100.00
2023-02-06T00:49:47.903Z,100.00
2023-02-06T00:52:14.755Z,100.00
2023-02-06T00:54:41.583Z,100.00
2023-02-06T00:57:08.379Z,100.00
2023-02-06T00:59:35.177Z,100.00
2023-02-06T01:02:02.031Z,100.00
2023-02-06T01:04:28.905Z,100.00
2023-02-06T01:06:55.681Z,100.00
2023-02-06T01:09:22.560Z,100.00
2023-02-06T01:11:49.387Z,100.00
2023-02-06T01:14:16.232Z,100.00
2023-02-06T01:16:43.055Z,100.00
2023-02-06T01:19:09.862Z,100.00
2023-02-06T01:21:36.670Z,100.00
2023-02-06T01:24:03.691Z,100.00
2023-02-06T01:26:30.510Z,100.00
2023-02-06T01:28:57.316Z,100.00
2023-02-06T01:31:28.719Z,100.00
2023-02-06T01:33:56.694Z,100.00
2023-02-06T01:36:23.601Z,100.00
2023-02-06T01:38:50.530Z,100.00
2023-02-06T01:41:18.183Z,100.00
2023-02-06T01:43:46.836Z,100.00
2023-02-06T01:46:13.773Z,100.00
2023-02-06T01:48:44.428Z,100.00
2023-02-06T01:51:17.168Z,100.00
2023-02-06T01:53:44.905Z,100.00
2023-02-06T01:56:11.643Z,100.00
2023-02-06T01:58:43.204Z,100.00
2023-02-06T02:01:10.227Z,100.00
2023-02-06T02:03:38.622Z,100.00
2023-02-06T02:06:12.838Z,100.00
2023-02-06T02:08:41.544Z,100.00
2023-02-06T02:11:10.161Z,100.00
2023-02-06T02:13:38.423Z,100.00
2023-02-06T02:16:23.558Z,100.00
2023-02-06T02:19:14.896Z,100.00
2023-02-06T02:21:44.637Z,100.00
2023-02-06T02:24:36.839Z,100.00
2023-02-06T02:27:21.828Z,100.00
2023-02-06T02:30:03.596Z,100.00
2023-02-06T02:32:32.918Z,100.00
2023-02-06T02:35:19.074Z,100.00
2023-02-06T02:38:03.536Z,100.00
2023-02-06T02:40:56.379Z,100.00
2023-02-06T02:43:35.126Z,100.00
2023-02-06T02:46:16.344Z,100.00
2023-02-06T02:48:44.678Z,100.00
2023-02-06T02:51:11.524Z,100.00
2023-02-06T02:53:38.458Z,100.00
2023-02-06T02:56:21.393Z,100.00
2023-02-06T02:58:51.826Z,100.00
2023-02-06T03:01:21.124Z,100.00
2023-02-06T03:03:48.680Z,100.00
2023-02-06T03:06:35.616Z,100.00
2023-02-06T03:09:25.471Z,100.00
2023-02-06T03:12:23.798Z,100.00
2023-02-06T03:15:16.503Z,100.00
2023-02-06T03:17:47.179Z,100.00
2023-02-06T03:20:13.971Z,100.00
2023-02-06T03:22:40.792Z,100.00
2023-02-06T03:25:10.837Z,100.00
2023-02-06T03:27:38.531Z,100.00
2023-02-06T03:30:05.660Z,100.00
2023-02-06T03:32:33.953Z,100.00
2023-02-06T03:35:08.874Z,100.00
2023-02-06T03:37:35.898Z,100.00
2023-02-06T03:40:02.846Z,100.00
2023-02-06T03:42:30.145Z,100.00
2023-02-06T03:45:03.313Z,100.00
2023-02-06T03:47:30.131Z,100.00
2023-02-06T03:49:57.865Z,100.00
2023-02-06T03:52:25.926Z,100.00
2023-02-06T03:55:02.499Z,100.00
2023-02-06T03:57:29.441Z,100.00
2023-02-06T03:59:56.272Z,100.00
2023-02-06T04:02:23.098Z,100.00
2023-02-06T04:04:49.887Z,100.00
2023-02-06T04:07:25.194Z,100.00
2023-02-06T04:09:52.181Z,100.00
2023-02-06T04:12:19.097Z,100.00
2023-02-06T04:14:45.995Z,100.00
2023-02-06T04:17:14.431Z,100.00
2023-02-06T04:19:42.218Z,100.00
2023-02-06T04:22:09.898Z,100.00
2023-02-06T04:24:39.377Z,100.00
2023-02-06T04:27:07.066Z,100.00
2023-02-06T04:29:33.905Z,100.00
2023-02-06T04:32:02.357Z,100.00
2023-02-06T04:34:32.865Z,100.00
2023-02-06T04:36:59.917Z,100.00
2023-02-06T04:39:26.998Z,100.00
2023-02-06T04:41:53.993Z,100.00
2023-02-06T04:44:21.174Z,100.00
2023-02-06T04:46:48.188Z,100.00
2023-02-06T04:49:15.111Z,100.00
2023-02-06T04:51:41.982Z,100.00
2023-02-06T04:54:08.962Z,100.00
2023-02-06T04:56:35.765Z,100.00
2023-02-06T04:59:02.621Z,100.00
2023-02-06T05:01:29.440Z,100.00
2023-02-06T05:03:56.296Z,100.00
2023-02-06T05:06:23.131Z,100.00
2023-02-06T05:08:49.984Z,100.00
2023-02-06T05:11:16.771Z,100.00
2023-02-06T05:13:43.679Z,100.00
2023-02-06T05:16:12.219Z,100.00
2023-02-06T05:18:39.249Z,100.00
2023-02-06T05:21:06.342Z,100.00
2023-02-06T05:23:33.197Z,100.00
2023-02-06T05:26:00.586Z,100.00
2023-02-06T05:28:29.732Z,100.00
2023-02-06T05:30:57.274Z,100.00
2023-02-06T05:33:24.182Z,100.00
2023-02-06T05:35:50.990Z,100.00
2023-02-06T05:38:18.013Z,100.00
2023-02-06T05:40:44.903Z,100.00
2023-02-06T05:43:12.045Z,100.00
2023-02-06T05:45:39.113Z,100.00
2023-02-06T05:48:06.165Z,100.00
2023-02-06T05:50:33.024Z,100.00
2023-02-06T05:52:59.801Z,100.00
2023-02-06T05:55:26.631Z,100.00
2023-02-06T05:57:53.459Z,100.00
2023-02-06T06:00:20.504Z,100.00
2023-02-06T06:02:47.324Z,100.00
2023-02-06T06:05:14.136Z,100.00
2023-02-06T06:07:41.085Z,100.00
2023-02-06T06:10:08.263Z,100.00
2023-02-06T06:12:35.074Z,100.00
2023-02-06T06:15:01.943Z,100.00
2023-02-06T06:17:28.866Z,100.00
2023-02-06T06:19:55.669Z,100.00
2023-02-06T06:22:22.566Z,100.00
2023-02-06T06:24:49.418Z,100.00
2023-02-06T06:27:16.321Z,100.00
2023-02-06T06:29:43.273Z,100.00
2023-02-06T06:32:10.127Z,100.00
2023-02-06T06:34:37.067Z,100.00
2023-02-06T06:37:05.051Z,100.00
2023-02-06T06:39:31.850Z,100.00
2023-02-06T06:41:58.652Z,100.00
2023-02-06T06:44:25.521Z,100.00
2023-02-06T06:46:52.455Z,100.00
2023-02-06T06:49:19.308Z,100.00
2023-02-06T06:51:46.120Z,100.00
2023-02-06T06:54:12.956Z,100.00
2023-02-06T06:56:39.813Z,100.00
2023-02-06T06:59:06.600Z,100.00
2023-02-06T07:01:33.593Z,100.00
2023-02-06T07:04:00.513Z,100.00
2023-02-06T07:06:27.421Z,100.00
2023-02-06T07:08:54.186Z,100.00
2023-02-06T07:11:21.037Z,100.00
2023-02-06T07:13:47.779Z,100.00
2023-02-06T07:16:15.025Z,100.00
2023-02-06T07:18:43.151Z,100.00
2023-02-06T07:21:10.465Z,100.00
2023-02-06T07:23:37.534Z,100.00
2023-02-06T07:26:04.547Z,100.00
2023-02-06T07:28:32.028Z,100.00
2023-02-06T07:31:05.960Z,100.00
2023-02-06T07:33:32.870Z,100.00
2023-02-06T07:36:01.707Z,100.00
2023-02-06T07:38:29.488Z,100.00
2023-02-06T07:41:00.949Z,100.00
2023-02-06T07:43:27.710Z,100.00
2023-02-06T07:45:54.519Z,100.00
2023-02-06T07:48:21.350Z,100.00
2023-02-06T07:50:48.182Z,100.00
2023-02-06T07:53:15.015Z,100.00
2023-02-06T07:55:41.840Z,100.00
2023-02-06T07:58:11.991Z,100.00
2023-02-06T08:00:41.601Z,100.00
2023-02-06T08:03:08.611Z,100.00
2023-02-06T08:05:37.744Z,100.00
2023-02-06T08:08:05.231Z,100.00
2023-02-06T08:10:32.172Z,100.00
2023-02-06T08:12:59.042Z,100.00
2023-02-06T08:15:26.019Z,100.00
2023-02-06T08:17:53.015Z,100.00
2023-02-06T08:20:19.922Z,100.00
2023-02-06T08:22:46.899Z,100.00
2023-02-06T08:25:13.721Z,100.00
2023-02-06T08:27:40.684Z,100.00
2023-02-06T08:30:08.018Z,100.00
2023-02-06T08:32:35.238Z,100.00
2023-02-06T08:35:02.331Z,100.00
2023-02-06T08:37:29.290Z,100.00
2023-02-06T08:39:56.145Z,100.00
2023-02-06T08:42:22.969Z,100.00
2023-02-06T08:44:49.883Z,100.00
2023-02-06T08:47:16.719Z,100.00
2023-02-06T08:49:43.598Z,100.00
2023-02-06T08:52:10.566Z,100.00
2023-02-06T08:54:38.907Z,100.00
2023-02-06T08:57:06.880Z,100.00
2023-02-06T08:59:35.026Z,100.00
2023-02-06T09:02:01.948Z,100.00
2023-02-06T09:04:35.424Z,100.00
2023-02-06T09:07:02.315Z,100.00
2023-02-06T09:09:29.207Z,100.00
2023-02-06T09:11:57.799Z,100.00
2023-02-06T09:14:24.806Z,100.00
2023-02-06T09:16:51.660Z,100.00
2023-02-06T09:19:18.489Z,100.00
2023-02-06T09:21:45.316Z,100.00
2023-02-06T09:24:12.152Z,100.00
2023-02-06T09:26:57.327Z,100.00
2023-02-06T09:29:27.178Z,100.00
2023-02-06T09:31:54.002Z,100.00
2023-02-06T09:34:20.911Z,100.00
2023-02-06T09:36:47.777Z,100.00
2023-02-06T09:39:14.589Z,100.00
2023-02-06T09:41:52.352Z,100.00
2023-02-06T09:44:34.511Z,100.00
2023-02-06T09:47:19.862Z,100.00
2023-02-06T09:49:49.377Z,100.00
2023-02-06T09:52:46.930Z,100.00
2023-02-06T09:55:32.395Z,100.00
2023-02-06T09:58:21.273Z,100.00
2023-02-06T10:01:15.127Z,100.00
2023-02-06T10:03:50.330Z,100.00
2023-02-06T10:06:39.089Z,100.00
2023-02-06T10:09:15.098Z,100.00
2023-02-06T10:12:05.518Z,100.00
2023-02-06T10:14:45.706Z,100.00
2023-02-06T10:17:18.638Z,100.00
2023-02-06T10:20:06.638Z,100.00
2023-02-06T10:22:39.445Z,100.00
2023-02-06T10:25:18.735Z,100.00
2023-02-06T10:27:45.912Z,99.85
2023-02-06T10:30:16.448Z,98.91
2023-02-06T10:32:57.057Z,97.23
2023-02-06T10:35:28.780Z,96.37
2023-02-06T10:38:38.979Z,94.81
2023-02-06T10:41:38.179Z,92.93
2023-02-06T10:44:26.762Z,90.45
2023-02-06T10:46:54.153Z,88.60
2023-02-06T10:49:48.238Z,87.43
2023-02-06T10:52:22.761Z,85.62
2023-02-06T10:54:55.337Z,84.29
2023-02-06T10:57:24.994Z,82.55
2023-02-06T10:59:53.978Z,80.92
2023-02-06T11:02:21.080Z,80.49
2023-02-06T11:05:14.739Z,79.55
2023-02-06T11:07:43.838Z,78.99
2023-02-06T11:10:14.439Z,76.73
2023-02-06T11:12:51.357Z,78.45
2023-02-06T11:15:48.323Z,78.00
2023-02-06T11:18:18.758Z,76.82
2023-02-06T11:20:45.690Z,78.13
2023-02-06T11:23:21.045Z,76.21
2023-02-06T11:25:54.377Z,77.07
2023-02-06T11:28:21.258Z,79.76
2023-02-06T11:31:07.887Z,81.43
2023-02-06T11:33:34.698Z,82.65
2023-02-06T11:36:02.373Z,83.36
2023-02-06T11:38:30.444Z,85.08
2023-02-06T11:41:00.902Z,86.24
2023-02-06T11:43:34.699Z,87.81
2023-02-06T11:46:21.124Z,88.03
2023-02-06T11:49:25.964Z,89.14
2023-02-06T11:52:04.035Z,89.64
2023-02-06T11:54:34.246Z,87.20
2023-02-06T11:57:07.893Z,86.36
2023-02-06T11:59:36.359Z,85.52
2023-02-06T12:02:23.065Z,85.99
2023-02-06T12:04:49.957Z,85.87
2023-02-06T12:07:30.902Z,86.30
2023-02-06T12:09:57.761Z,87.14
2023-02-06T12:12:28.796Z,86.77
2023-02-06T12:15:18.196Z,87.14
2023-02-06T12:18:13.728Z,83.82
2023-02-06T12:20:52.420Z,78.76
2023-02-06T12:23:37.882Z,76.18
2023-02-06T12:26:10.024Z,74.60
2023-02-06T12:28:45.394Z,73.83
2023-02-06T12:31:50.215Z,72.15
2023-02-06T12:34:32.062Z,72.29
2023-02-06T12:37:14.434Z,74.64
2023-02-06T12:39:42.630Z,72.46
2023-02-06T12:42:27.698Z,70.83
2023-02-06T12:45:00.637Z,70.66
2023-02-06T12:47:37.675Z,73.49
2023-02-06T12:50:23.220Z,76.84
2023-02-06T12:52:53.029Z,79.07
2023-02-06T12:55:46.001Z,80.22
2023-02-06T12:58:43.035Z,82.60
2023-02-06T13:01:33.719Z,83.83
2023-02-06T13:04:04.536Z,85.10
2023-02-06T13:06:56.935Z,85.73
2023-02-06T13:09:26.924Z,86.85
2023-02-06T13:11:53.834Z,85.77
2023-02-06T13:14:25.356Z,86.89
2023-02-06T13:16:55.154Z,87.48
2023-02-06T13:19:31.994Z,88.07
2023-02-06T13:22:11.057Z,89.61
2023-02-06T13:24:38.483Z,90.10
2023-02-06T13:27:08.274Z,91.19
2023-02-06T13:29:48.176Z,90.89
2023-02-06T13:32:17.758Z,91.48
2023-02-06T13:34:44.531Z,92.32
2023-02-06T13:37:39.298Z,91.75
2023-02-06T13:40:26.727Z,93.49
2023-02-06T13:43:19.708Z,94.38
2023-02-06T13:45:57.296Z,94.29
2023-02-06T13:49:01.766Z,94.26
2023-02-06T13:51:50.976Z,93.64
2023-02-06T13:54:55.246Z,95.08
2023-02-06T13:57:58.296Z,94.91
2023-02-06T14:00:26.699Z,94.81
2023-02-06T14:03:04.505Z,95.33
2023-02-06T14:05:54.832Z,94.69
2023-02-06T14:08:36.396Z,95.38
2023-02-06T14:11:38.301Z,94.59
2023-02-06T14:14:31.833Z,95.03
2023-02-06T14:17:45.215Z,95.45
2023-02-06T14:20:49.331Z,95.46
2023-02-06T14:23:53.314Z,97.35
2023-02-06T14:26:25.731Z,97.09
2023-02-06T14:29:22.655Z,99.08
2023-02-06T14:32:19.692Z,98.79
2023-02-06T14:34:59.691Z,100.00
2023-02-06T14:37:36.751Z,100.00
2023-02-06T14:40:04.834Z,100.00
2023-02-06T14:42:34.187Z,100.00
2023-02-06T14:45:03.485Z,100.00
2023-02-06T14:47:32.572Z,100.00
2023-02-06T14:49:59.924Z,100.00
2023-02-06T14:52:28.930Z,100.00
2023-02-06T14:54:55.850Z,100.00
2023-02-06T14:57:30.664Z,100.00
2023-02-06T15:00:13.732Z,100.00
2023-02-06T15:02:40.497Z,100.00
2023-02-06T15:05:07.482Z,100.00
2023-02-06T15:07:36.170Z,100.00
2023-02-06T15:10:11.572Z,100.00
2023-02-06T15:12:38.414Z,100.00
2023-02-06T15:15:18.368Z,100.00
2023-02-06T15:18:16.014Z,100.00
2023-02-06T15:20:44.358Z,100.00
2023-02-06T15:23:33.074Z,100.00
2023-02-06T15:26:10.232Z,100.00
2023-02-06T15:28:38.044Z,100.00
2023-02-06T15:31:05.226Z,100.00
2023-02-06T15:33:33.487Z,100.00
2023-02-06T15:36:02.013Z,100.00
2023-02-06T15:38:30.593Z,100.00
2023-02-06T15:41:03.376Z,100.00
2023-02-06T15:43:30.216Z,100.00
2023-02-06T15:45:58.361Z,100.00
2023-02-06T15:48:49.437Z,100.00
2023-02-06T15:51:28.467Z,100.00
2023-02-06T15:54:16.758Z,100.00
2023-02-06T15:56:43.783Z,100.00
2023-02-06T15:59:16.900Z,100.00
2023-02-06T16:01:43.677Z,100.00
2023-02-06T16:04:19.836Z,100.00
2023-02-06T16:06:46.882Z,100.00
2023-02-06T16:09:20.116Z,100.00
2023-02-06T16:11:47.415Z,100.00
2023-02-06T16:14:32.371Z,100.00
2023-02-06T16:17:05.519Z,100.00
2023-02-06T16:19:54.354Z,100.00
2023-02-06T16:22:21.095Z,100.00
2023-02-06T16:24:48.651Z,100.00
2023-02-06T16:27:21.324Z,100.00
2023-02-06T16:29:57.393Z,100.00
2023-02-06T16:32:27.815Z,100.00
2023-02-06T16:34:55.555Z,100.00
2023-02-06T16:37:28.317Z,100.00
2023-02-06T16:39:55.229Z,100.00
2023-02-06T16:42:24.053Z,100.00
2023-02-06T16:44:52.841Z,100.00
2023-02-06T16:47:21.154Z,100.00
2023-02-06T16:49:52.237Z,100.00
2023-02-06T16:52:22.292Z,100.00
2023-02-06T16:54:49.394Z,100.00
2023-02-06T16:57:38.280Z,100.00
2023-02-06T17:00:09.668Z,100.00
2023-02-06T17:02:36.888Z,100.00
2023-02-06T17:05:03.777Z,100.00
2023-02-06T17:07:31.335Z,100.00
2023-02-06T17:09:58.624Z,100.00
2023-02-06T17:12:25.549Z,100.00
2023-02-06T17:14:55.539Z,100.00
2023-02-06T17:17:22.771Z,100.00
2023-02-06T17:19:50.251Z,100.00
2023-02-06T17:22:17.079Z,100.00
2023-02-06T17:24:43.994Z,100.00
2023-02-06T17:27:21.231Z,100.00
2023-02-06T17:29:48.394Z,100.00
2023-02-06T17:32:16.336Z,100.00
2023-02-06T17:34:43.200Z,100.00
2023-02-06T17:37:12.454Z,100.00
2023-02-06T17:39:39.230Z,100.00
2023-02-06T17:42:06.182Z,100.00
2023-02-06T17:44:33.056Z,100.00
2023-02-06T17:46:59.960Z,100.00
2023-02-06T17:49:26.764Z,100.00
2023-02-06T17:51:54.637Z,100.00
2023-02-06T17:54:21.429Z,100.00
2023-02-06T17:56:48.263Z,100.00
2023-02-06T17:59:15.049Z,100.00
2023-02-06T18:01:42.805Z,100.00
2023-02-06T18:04:13.232Z,100.00
2023-02-06T18:06:40.554Z,100.00
2023-02-06T18:09:07.324Z,100.00
2023-02-06T18:11:35.818Z,100.00
2023-02-06T18:14:02.687Z,100.00
2023-02-06T18:16:30.657Z,100.00
2023-02-06T18:18:57.822Z,100.00
2023-02-06T18:21:24.688Z,100.00
2023-02-06T18:23:52.305Z,100.00
2023-02-06T18:26:19.247Z,100.00
2023-02-06T18:28:46.036Z,100.00
2023-02-06T18:31:27.202Z,100.00
2023-02-06T18:33:54.705Z,100.00
2023-02-06T18:36:21.779Z,100.00
2023-02-06T18:38:48.721Z,100.00
2023-02-06T18:41:34.370Z,100.00
2023-02-06T18:44:06.174Z,100.00
2023-02-06T18:46:33.360Z,100.00
2023-02-06T18:49:00.184Z,100.00
2023-02-06T18:51:27.138Z,100.00
2023-02-06T18:53:53.913Z,100.00
2023-02-06T18:56:20.697Z,100.00
2023-02-06T18:58:47.474Z,100.00
2023-02-06T19:01:18.947Z,100.00
2023-02-06T19:03:47.221Z,100.00
2023-02-06T19:06:15.341Z,100.00
2023-02-06T19:08:45.113Z,100.00
2023-02-06T19:11:13.365Z,100.00
2023-02-06T19:13:40.761Z,100.00
2023-02-06T19:16:09.423Z,100.00
2023-02-06T19:18:39.535Z,100.00
2023-02-06T19:21:10.778Z,100.00
2023-02-06T19:23:38.311Z,100.00
2023-02-06T19:26:09.324Z,100.00
2023-02-06T19:28:38.342Z,100.00
2023-02-06T19:31:06.044Z,100.00
2023-02-06T19:33:33.966Z,100.00
2023-02-06T19:36:09.136Z,100.00
2023-02-06T19:38:36.025Z,100.00
2023-02-06T19:41:13.152Z,100.00
2023-02-06T19:43:40.239Z,100.00
2023-02-06T19:46:14.376Z,100.00
2023-02-06T19:48:45.625Z,100.00
2023-02-06T19:51:17.075Z,100.00
2023-02-06T19:53:46.942Z,100.00
2023-02-06T19:56:24.037Z,100.00
2023-02-06T19:59:18.416Z,100.00
2023-02-06T20:01:49.542Z,100.00
2023-02-06T20:04:16.559Z,100.00
2023-02-06T20:06:44.125Z,100.00
2023-02-06T20:09:12.347Z,100.00
2023-02-06T20:11:39.312Z,100.00
2023-02-06T20:14:06.317Z,100.00
2023-02-06T20:16:34.741Z,100.00
2023-02-06T20:19:13.305Z,100.00
2023-02-06T20:21:41.727Z,100.00
2023-02-06T20:24:10.866Z,100.00
2023-02-06T20:26:38.597Z,100.00
2023-02-06T20:29:06.388Z,100.00
2023-02-06T20:31:36.662Z,100.00
2023-02-06T20:34:03.549Z,100.00
2023-02-06T20:36:30.297Z,100.00
2023-02-06T20:38:58.962Z,100.00
2023-02-06T20:41:31.324Z,100.00
2023-02-06T20:43:59.069Z,100.00
2023-02-06T20:46:27.376Z,100.00
2023-02-06T20:49:10.652Z,100.00
2023-02-06T20:51:37.429Z,100.00
2023-02-06T20:54:04.261Z,100.00
2023-02-06T20:56:31.367Z,100.00
2023-02-06T20:59:01.125Z,100.00
2023-02-06T21:01:29.536Z,100.00
2023-02-06T21:03:58.494Z,100.00
2023-02-06T21:06:25.819Z,100.00
2023-02-06T21:08:57.315Z,100.00
2023-02-06T21:11:24.295Z,100.00
2023-02-06T21:13:51.115Z,100.00
2023-02-06T21:16:17.906Z,100.00
2023-02-06T21:18:44.771Z,100.00
2023-02-06T21:21:13.073Z,100.00
2023-02-06T21:23:40.890Z,100.00
2023-02-06T21:26:08.146Z,100.00
2023-02-06T21:28:35.347Z,100.00
2023-02-06T21:31:07.344Z,100.00
2023-02-06T21:33:34.484Z,100.00
2023-02-06T21:36:02.386Z,100.00
2023-02-06T21:38:29.633Z,100.00
2023-02-06T21:40:56.839Z,100.00
2023-02-06T21:43:23.605Z,100.00
2023-02-06T21:45:50.400Z,100.00
2023-02-06T21:48:17.182Z,100.00
2023-02-06T21:50:44.939Z,100.00
2023-02-06T21:53:11.921Z,100.00
2023-02-06T21:55:43.019Z,100.00
2023-02-06T21:58:10.520Z,100.00
2023-02-06T22:00:37.309Z,100.00
2023-02-06T22:03:04.206Z,100.00
2023-02-06T22:05:31.109Z,100.00
2023-02-06T22:07:58.948Z,100.00
2023-02-06T22:10:25.893Z,100.00
2023-02-06T22:12:52.837Z,100.00
2023-02-06T22:15:19.653Z,100.00
2023-02-06T22:17:46.387Z,100.00
2023-02-06T22:20:15.423Z,100.00
2023-02-06T22:22:43.078Z,100.00
2023-02-06T22:25:11.797Z,100.00
2023-02-06T22:27:39.611Z,100.00
2023-02-06T22:30:07.415Z,100.00
2023-02-06T22:32:38.003Z,100.00
2023-02-06T22:35:05.942Z,100.00
2023-02-06T22:37:33.525Z,100.00
2023-02-06T22:40:00.295Z,100.00
2023-02-06T22:42:27.308Z,100.00
2023-02-06T22:44:54.091Z,100.00
2023-02-06T22:47:20.964Z,100.00
2023-02-06T22:49:50.667Z,100.00
2023-02-06T22:52:35.675Z,100.00
2023-02-06T22:55:04.266Z,100.00
2023-02-06T22:57:31.133Z,100.00
2023-02-06T22:59:57.998Z,100.00
2023-02-06T23:02:24.771Z,100.00
2023-02-06T23:04:51.663Z,100.00
2023-02-06T23:07:18.455Z,100.00
2023-02-06T23:09:45.242Z,100.00
2023-02-06T23:12:13.742Z,100.00
2023-02-06T23:14:40.645Z,100.00
2023-02-06T23:17:07.479Z,100.00
2023-02-06T23:19:34.309Z,100.00
2023-02-06T23:22:01.129Z,100.00
2023-02-06T23:24:27.976Z,100.00
2023-02-06T23:26:54.938Z,100.00
2023-02-06T23:29:22.165Z,100.00
2023-02-06T23:31:49.237Z,100.00
2023-02-06T23:34:16.576Z,100.00
2023-02-06T23:36:43.476Z,100.00
2023-02-06T23:39:11.828Z,100.00
2023-02-06T23:41:38.784Z,100.00
2023-02-06T23:44:06.248Z,100.00
2023-02-06T23:46:34.738Z,100.00
2023-02-06T23:49:01.564Z,100.00
2023-02-06T23:51:28.458Z,100.00
2023-02-06T23:53:55.229Z,100.00
2023-02-06T23:56:24.159Z,100.00
2023-02-06T23:58:51.111Z,100.00
